sensor_id;sensor_type;location;lat;lon;timestamp;P1;durP1;ratioP1;P2;durP2;ratioP2
81960;SDS011;71462;50.650;6.888;2023-08-06T00:01:57;5.40;;;2.25;;
81960;SDS011;71462;50.650;6.888;2023-08-06T00:04:35;6.85;;;3.50;;
81960;SDS011;71462;50.650;6.888;2023-08-06T00:06:41;7.25;;;2.60;;
81960;SDS011;71462;50.650;6.888;2023-08-06T00:09:02;5.85;;;2.55;;
81960;SDS011;71462;50.650;6.888;2023-08-06T00:14:09;4.50;;;2.60;;
81960;SDS011;71462;50.650;6.888;2023-08-06T00:19:18;4.20;;;2.20;;
81960;SDS011;71462;50.650;6.888;2023-08-06T00:21:21;9.98;;;2.88;;
81960;SDS011;71462;50.650;6.888;2023-08-06T00:23:24;5.38;;;2.38;;
81960;SDS011;71462;50.650;6.888;2023-08-06T00:25:27;4.15;;;2.35;;
81960;SDS011;71462;50.650;6.888;2023-08-06T00:27:30;5.53;;;2.85;;
81960;SDS011;71462;50.650;6.888;2023-08-06T00:32:45;4.53;;;2.45;;
81960;SDS011;71462;50.650;6.888;2023-08-06T00:34:59;5.65;;;2.75;;
81960;SDS011;71462;50.650;6.888;2023-08-06T00:37:43;6.25;;;2.42;;
81960;SDS011;71462;50.650;6.888;2023-08-06T00:42:39;5.68;;;2.50;;
81960;SDS011;71462;50.650;6.888;2023-08-06T00:44:55;5.70;;;2.30;;
81960;SDS011;71462;50.650;6.888;2023-08-06T00:47:06;6.25;;;2.40;;
81960;SDS011;71462;50.650;6.888;2023-08-06T00:51:57;4.95;;;2.10;;
81960;SDS011;71462;50.650;6.888;2023-08-06T00:54:29;5.22;;;2.55;;
81960;SDS011;71462;50.650;6.888;2023-08-06T00:56:36;5.22;;;2.22;;
81960;SDS011;71462;50.650;6.888;2023-08-06T00:58:41;6.10;;;2.60;;
81960;SDS011;71462;50.650;6.888;2023-08-06T01:00:45;5.03;;;2.05;;
81960;SDS011;71462;50.650;6.888;2023-08-06T01:12:40;7.50;;;2.20;;
81960;SDS011;71462;50.650;6.888;2023-08-06T01:14:54;6.88;;;3.08;;
81960;SDS011;71462;50.650;6.888;2023-08-06T01:17:02;4.07;;;2.20;;
81960;SDS011;71462;50.650;6.888;2023-08-06T01:19:25;4.65;;;2.20;;
81960;SDS011;71462;50.650;6.888;2023-08-06T01:24:35;6.10;;;2.08;;
81960;SDS011;71462;50.650;6.888;2023-08-06T01:29:30;6.28;;;2.40;;
81960;SDS011;71462;50.650;6.888;2023-08-06T01:35:34;8.98;;;2.40;;
81960;SDS011;71462;50.650;6.888;2023-08-06T01:40:29;6.15;;;2.30;;
81960;SDS011;71462;50.650;6.888;2023-08-06T01:42:31;6.82;;;2.55;;
81960;SDS011;71462;50.650;6.888;2023-08-06T01:47:09;7.30;;;2.75;;
81960;SDS011;71462;50.650;6.888;2023-08-06T01:49:12;7.60;;;2.38;;
81960;SDS011;71462;50.650;6.888;2023-08-06T01:51:43;7.57;;;2.30;;
81960;SDS011;71462;50.650;6.888;2023-08-06T01:53:54;8.25;;;2.55;;
81960;SDS011;71462;50.650;6.888;2023-08-06T01:55:58;6.32;;;2.30;;
81960;SDS011;71462;50.650;6.888;2023-08-06T02:00:44;8.98;;;2.40;;
81960;SDS011;71462;50.650;6.888;2023-08-06T02:02:46;7.32;;;3.00;;
81960;SDS011;71462;50.650;6.888;2023-08-06T02:05:09;11.18;;;3.17;;
81960;SDS011;71462;50.650;6.888;2023-08-06T02:07:12;7.90;;;2.72;;
81960;SDS011;71462;50.650;6.888;2023-08-06T02:09:14;7.32;;;2.88;;
81960;SDS011;71462;50.650;6.888;2023-08-06T02:14:31;7.15;;;2.63;;
81960;SDS011;71462;50.650;6.888;2023-08-06T02:17:01;6.45;;;2.53;;
81960;SDS011;71462;50.650;6.888;2023-08-06T02:25:35;6.75;;;2.70;;
81960;SDS011;71462;50.650;6.888;2023-08-06T02:27:41;10.52;;;3.90;;
81960;SDS011;71462;50.650;6.888;2023-08-06T02:30:11;8.07;;;2.58;;
81960;SDS011;71462;50.650;6.888;2023-08-06T02:32:32;8.02;;;2.58;;
81960;SDS011;71462;50.650;6.888;2023-08-06T02:34:49;6.57;;;2.40;;
81960;SDS011;71462;50.650;6.888;2023-08-06T02:37:18;6.72;;;2.10;;
81960;SDS011;71462;50.650;6.888;2023-08-06T02:39:38;5.07;;;2.35;;
81960;SDS011;71462;50.650;6.888;2023-08-06T03:03:24;8.52;;;2.72;;
81960;SDS011;71462;50.650;6.888;2023-08-06T03:08:41;10.73;;;5.03;;
81960;SDS011;71462;50.650;6.888;2023-08-06T03:11:05;7.00;;;2.30;;
81960;SDS011;71462;50.650;6.888;2023-08-06T03:13:08;6.85;;;2.38;;
81960;SDS011;71462;50.650;6.888;2023-08-06T03:15:59;6.03;;;2.42;;
81960;SDS011;71462;50.650;6.888;2023-08-06T03:18:52;5.28;;;2.25;;
81960;SDS011;71462;50.650;6.888;2023-08-06T03:21:09;7.38;;;2.30;;
81960;SDS011;71462;50.650;6.888;2023-08-06T03:23:15;5.72;;;2.25;;
81960;SDS011;71462;50.650;6.888;2023-08-06T03:26:23;6.57;;;2.30;;
81960;SDS011;71462;50.650;6.888;2023-08-06T03:28:32;7.25;;;2.20;;
81960;SDS011;71462;50.650;6.888;2023-08-06T03:38:58;7.93;;;2.70;;
81960;SDS011;71462;50.650;6.888;2023-08-06T03:41:32;6.38;;;2.10;;
81960;SDS011;71462;50.650;6.888;2023-08-06T03:47:27;4.45;;;2.15;;
81960;SDS011;71462;50.650;6.888;2023-08-06T03:49:35;5.50;;;2.15;;
81960;SDS011;71462;50.650;6.888;2023-08-06T03:51:38;4.30;;;2.00;;
81960;SDS011;71462;50.650;6.888;2023-08-06T03:53:42;6.00;;;2.33;;
81960;SDS011;71462;50.650;6.888;2023-08-06T03:55:45;4.57;;;2.08;;
81960;SDS011;71462;50.650;6.888;2023-08-06T03:57:59;5.20;;;1.70;;
81960;SDS011;71462;50.650;6.888;2023-08-06T04:00:02;4.38;;;1.85;;
81960;SDS011;71462;50.650;6.888;2023-08-06T04:02:05;6.28;;;1.80;;
81960;SDS011;71462;50.650;6.888;2023-08-06T04:04:20;5.55;;;2.05;;
81960;SDS011;71462;50.650;6.888;2023-08-06T04:06:36;4.82;;;1.85;;
81960;SDS011;71462;50.650;6.888;2023-08-06T04:09:07;3.63;;;1.58;;
81960;SDS011;71462;50.650;6.888;2023-08-06T04:11:16;7.88;;;2.20;;
81960;SDS011;71462;50.650;6.888;2023-08-06T04:13:46;5.57;;;1.80;;
81960;SDS011;71462;50.650;6.888;2023-08-06T04:15:52;3.88;;;1.83;;
81960;SDS011;71462;50.650;6.888;2023-08-06T04:18:00;3.50;;;1.70;;
81960;SDS011;71462;50.650;6.888;2023-08-06T04:22:41;5.32;;;1.92;;
81960;SDS011;71462;50.650;6.888;2023-08-06T04:24:59;4.72;;;1.65;;
81960;SDS011;71462;50.650;6.888;2023-08-06T04:27:16;4.95;;;1.60;;
81960;SDS011;71462;50.650;6.888;2023-08-06T04:29:24;3.13;;;1.50;;
81960;SDS011;71462;50.650;6.888;2023-08-06T04:31:26;6.28;;;1.63;;
81960;SDS011;71462;50.650;6.888;2023-08-06T04:33:31;4.00;;;1.70;;
81960;SDS011;71462;50.650;6.888;2023-08-06T04:35:41;3.65;;;1.60;;
81960;SDS011;71462;50.650;6.888;2023-08-06T04:40:57;4.88;;;1.90;;
81960;SDS011;71462;50.650;6.888;2023-08-06T04:43:10;2.55;;;1.50;;
81960;SDS011;71462;50.650;6.888;2023-08-06T04:45:21;4.18;;;1.60;;
81960;SDS011;71462;50.650;6.888;2023-08-06T04:48:02;3.42;;;1.60;;
81960;SDS011;71462;50.650;6.888;2023-08-06T04:50:15;3.40;;;1.60;;
81960;SDS011;71462;50.650;6.888;2023-08-06T04:52:22;3.33;;;1.50;;
81960;SDS011;71462;50.650;6.888;2023-08-06T04:54:28;3.75;;;1.58;;
81960;SDS011;71462;50.650;6.888;2023-08-06T04:56:35;3.35;;;1.90;;
81960;SDS011;71462;50.650;6.888;2023-08-06T05:03:35;2.38;;;1.50;;
81960;SDS011;71462;50.650;6.888;2023-08-06T05:08:13;3.13;;;1.40;;
81960;SDS011;71462;50.650;6.888;2023-08-06T05:10:45;4.63;;;2.13;;
81960;SDS011;71462;50.650;6.888;2023-08-06T05:21:26;5.35;;;1.70;;
81960;SDS011;71462;50.650;6.888;2023-08-06T05:26:36;3.33;;;1.60;;
81960;SDS011;71462;50.650;6.888;2023-08-06T05:30:07;4.03;;;1.80;;
81960;SDS011;71462;50.650;6.888;2023-08-06T05:32:10;3.28;;;1.30;;
81960;SDS011;71462;50.650;6.888;2023-08-06T05:34:14;5.90;;;3.38;;
81960;SDS011;71462;50.650;6.888;2023-08-06T05:36:17;4.47;;;1.80;;
81960;SDS011;71462;50.650;6.888;2023-08-06T05:38:19;3.15;;;1.65;;
81960;SDS011;71462;50.650;6.888;2023-08-06T05:42:59;4.70;;;1.83;;
81960;SDS011;71462;50.650;6.888;2023-08-06T05:45:36;3.78;;;1.60;;
81960;SDS011;71462;50.650;6.888;2023-08-06T05:47:39;4.53;;;1.60;;
81960;SDS011;71462;50.650;6.888;2023-08-06T05:52:15;4.20;;;1.50;;
81960;SDS011;71462;50.650;6.888;2023-08-06T05:54:18;2.95;;;1.50;;
81960;SDS011;71462;50.650;6.888;2023-08-06T05:56:38;5.18;;;1.58;;
81960;SDS011;71462;50.650;6.888;2023-08-06T05:58:40;6.03;;;1.70;;
81960;SDS011;71462;50.650;6.888;2023-08-06T06:00:52;4.30;;;1.85;;
81960;SDS011;71462;50.650;6.888;2023-08-06T06:03:41;4.05;;;1.70;;
81960;SDS011;71462;50.650;6.888;2023-08-06T06:08:17;2.83;;;1.30;;
81960;SDS011;71462;50.650;6.888;2023-08-06T06:10:29;3.17;;;1.70;;
81960;SDS011;71462;50.650;6.888;2023-08-06T06:13:02;2.45;;;1.38;;
81960;SDS011;71462;50.650;6.888;2023-08-06T06:15:33;2.20;;;1.20;;
81960;SDS011;71462;50.650;6.888;2023-08-06T06:17:36;3.40;;;1.40;;
81960;SDS011;71462;50.650;6.888;2023-08-06T06:19:39;2.53;;;1.20;;
81960;SDS011;71462;50.650;6.888;2023-08-06T06:22:15;4.68;;;0.98;;
81960;SDS011;71462;50.650;6.888;2023-08-06T06:24:28;3.30;;;1.38;;
81960;SDS011;71462;50.650;6.888;2023-08-06T06:26:40;3.50;;;1.33;;
81960;SDS011;71462;50.650;6.888;2023-08-06T06:29:05;7.25;;;1.40;;
81960;SDS011;71462;50.650;6.888;2023-08-06T06:33:57;3.20;;;1.73;;
81960;SDS011;71462;50.650;6.888;2023-08-06T06:36:00;4.53;;;2.00;;
81960;SDS011;71462;50.650;6.888;2023-08-06T06:41:19;5.90;;;1.90;;
81960;SDS011;71462;50.650;6.888;2023-08-06T06:43:32;4.22;;;2.30;;
81960;SDS011;71462;50.650;6.888;2023-08-06T06:45:58;2.70;;;1.80;;
81960;SDS011;71462;50.650;6.888;2023-08-06T06:52:08;4.40;;;1.80;;
81960;SDS011;71462;50.650;6.888;2023-08-06T07:03:19;6.35;;;2.20;;
81960;SDS011;71462;50.650;6.888;2023-08-06T07:06:13;5.55;;;2.90;;
81960;SDS011;71462;50.650;6.888;2023-08-06T07:08:43;4.32;;;2.10;;
81960;SDS011;71462;50.650;6.888;2023-08-06T07:10:59;3.80;;;2.20;;
81960;SDS011;71462;50.650;6.888;2023-08-06T07:13:47;3.67;;;1.92;;
81960;SDS011;71462;50.650;6.888;2023-08-06T07:16:07;5.03;;;2.03;;
81960;SDS011;71462;50.650;6.888;2023-08-06T07:18:21;5.20;;;2.25;;
81960;SDS011;71462;50.650;6.888;2023-08-06T07:20:26;5.13;;;2.15;;
81960;SDS011;71462;50.650;6.888;2023-08-06T07:24:14;5.65;;;2.13;;
81960;SDS011;71462;50.650;6.888;2023-08-06T07:26:03;6.75;;;2.38;;
81960;SDS011;71462;50.650;6.888;2023-08-06T07:28:06;5.57;;;2.30;;
81960;SDS011;71462;50.650;6.888;2023-08-06T07:30:40;5.18;;;2.33;;
81960;SDS011;71462;50.650;6.888;2023-08-06T07:35:54;4.50;;;1.80;;
81960;SDS011;71462;50.650;6.888;2023-08-06T07:41:39;2.92;;;1.92;;
81960;SDS011;71462;50.650;6.888;2023-08-06T07:46:21;6.07;;;2.10;;
81960;SDS011;71462;50.650;6.888;2023-08-06T07:48:34;5.60;;;2.30;;
81960;SDS011;71462;50.650;6.888;2023-08-06T07:51:14;4.15;;;2.25;;
81960;SDS011;71462;50.650;6.888;2023-08-06T07:54:33;5.93;;;2.42;;
81960;SDS011;71462;50.650;6.888;2023-08-06T07:59:34;3.25;;;1.85;;
81960;SDS011;71462;50.650;6.888;2023-08-06T08:04:44;5.80;;;2.15;;
81960;SDS011;71462;50.650;6.888;2023-08-06T08:09:57;4.90;;;2.03;;
81960;SDS011;71462;50.650;6.888;2023-08-06T08:12:29;5.85;;;2.03;;
81960;SDS011;71462;50.650;6.888;2023-08-06T08:15:13;7.05;;;2.60;;
81960;SDS011;71462;50.650;6.888;2023-08-06T08:18:32;4.13;;;2.50;;
81960;SDS011;71462;50.650;6.888;2023-08-06T08:21:04;5.38;;;2.70;;
81960;SDS011;71462;50.650;6.888;2023-08-06T08:29:24;4.97;;;1.73;;
81960;SDS011;71462;50.650;6.888;2023-08-06T08:31:49;4.22;;;2.10;;
81960;SDS011;71462;50.650;6.888;2023-08-06T08:33:55;3.47;;;2.00;;
81960;SDS011;71462;50.650;6.888;2023-08-06T08:38:36;3.67;;;2.10;;
81960;SDS011;71462;50.650;6.888;2023-08-06T08:40:54;4.35;;;1.98;;
81960;SDS011;71462;50.650;6.888;2023-08-06T08:43:10;4.07;;;2.00;;
81960;SDS011;71462;50.650;6.888;2023-08-06T08:45:15;3.63;;;1.92;;
81960;SDS011;71462;50.650;6.888;2023-08-06T08:50:34;5.28;;;2.30;;
81960;SDS011;71462;50.650;6.888;2023-08-06T08:53:13;4.65;;;2.10;;
81960;SDS011;71462;50.650;6.888;2023-08-06T08:55:37;4.40;;;1.88;;
81960;SDS011;71462;50.650;6.888;2023-08-06T08:57:40;4.18;;;1.65;;
81960;SDS011;71462;50.650;6.888;2023-08-06T09:12:00;2.10;;;1.10;;
81960;SDS011;71462;50.650;6.888;2023-08-06T09:14:13;2.70;;;1.13;;
81960;SDS011;71462;50.650;6.888;2023-08-06T09:16:15;3.05;;;1.00;;
81960;SDS011;71462;50.650;6.888;2023-08-06T09:18:24;1.40;;;0.70;;
81960;SDS011;71462;50.650;6.888;2023-08-06T09:20:59;1.15;;;0.77;;
81960;SDS011;71462;50.650;6.888;2023-08-06T09:26:43;3.78;;;0.80;;
81960;SDS011;71462;50.650;6.888;2023-08-06T09:29:21;2.35;;;0.63;;
81960;SDS011;71462;50.650;6.888;2023-08-06T09:31:44;0.75;;;0.45;;
81960;SDS011;71462;50.650;6.888;2023-08-06T09:36:13;2.53;;;0.73;;
81960;SDS011;71462;50.650;6.888;2023-08-06T09:38:43;1.10;;;0.80;;
81960;SDS011;71462;50.650;6.888;2023-08-06T09:40:52;2.58;;;1.25;;
81960;SDS011;71462;50.650;6.888;2023-08-06T09:45:36;1.40;;;0.95;;
81960;SDS011;71462;50.650;6.888;2023-08-06T09:47:55;1.98;;;1.27;;
81960;SDS011;71462;50.650;6.888;2023-08-06T09:49:58;2.35;;;1.40;;
81960;SDS011;71462;50.650;6.888;2023-08-06T09:52:02;3.28;;;1.42;;
81960;SDS011;71462;50.650;6.888;2023-08-06T09:58:25;2.85;;;1.20;;
81960;SDS011;71462;50.650;6.888;2023-08-06T10:00:49;3.17;;;1.45;;
81960;SDS011;71462;50.650;6.888;2023-08-06T10:03:09;5.22;;;1.88;;
81960;SDS011;71462;50.650;6.888;2023-08-06T10:05:15;2.58;;;1.40;;
81960;SDS011;71462;50.650;6.888;2023-08-06T10:08:00;3.28;;;1.73;;
81960;SDS011;71462;50.650;6.888;2023-08-06T10:10:21;3.35;;;1.88;;
81960;SDS011;71462;50.650;6.888;2023-08-06T10:13:20;4.75;;;2.20;;
81960;SDS011;71462;50.650;6.888;2023-08-06T10:16:03;5.05;;;1.92;;
81960;SDS011;71462;50.650;6.888;2023-08-06T10:18:07;4.97;;;2.30;;
81960;SDS011;71462;50.650;6.888;2023-08-06T10:20:23;4.53;;;2.10;;
81960;SDS011;71462;50.650;6.888;2023-08-06T10:29:38;4.53;;;2.08;;
81960;SDS011;71462;50.650;6.888;2023-08-06T10:41:38;4.57;;;1.95;;
81960;SDS011;71462;50.650;6.888;2023-08-06T10:43:48;8.77;;;2.17;;
81960;SDS011;71462;50.650;6.888;2023-08-06T10:45:52;4.63;;;1.90;;
81960;SDS011;71462;50.650;6.888;2023-08-06T10:47:55;7.90;;;2.10;;
81960;SDS011;71462;50.650;6.888;2023-08-06T10:49:59;4.65;;;1.92;;
81960;SDS011;71462;50.650;6.888;2023-08-06T10:52:27;5.13;;;1.83;;
81960;SDS011;71462;50.650;6.888;2023-08-06T10:57:13;5.30;;;2.30;;
81960;SDS011;71462;50.650;6.888;2023-08-06T10:57:13;7.45;;;1.90;;
81960;SDS011;71462;50.650;6.888;2023-08-06T10:59:16;4.70;;;1.67;;
81960;SDS011;71462;50.650;6.888;2023-08-06T11:01:59;7.05;;;1.77;;
81960;SDS011;71462;50.650;6.888;2023-08-06T11:07:17;3.75;;;1.48;;
81960;SDS011;71462;50.650;6.888;2023-08-06T11:11:25;7.05;;;2.08;;
81960;SDS011;71462;50.650;6.888;2023-08-06T11:12:39;4.03;;;1.60;;
81960;SDS011;71462;50.650;6.888;2023-08-06T11:15:00;7.43;;;1.52;;
81960;SDS011;71462;50.650;6.888;2023-08-06T11:17:05;5.07;;;1.90;;
81960;SDS011;71462;50.650;6.888;2023-08-06T11:19:13;4.03;;;1.70;;
81960;SDS011;71462;50.650;6.888;2023-08-06T11:21:22;4.95;;;1.60;;
81960;SDS011;71462;50.650;6.888;2023-08-06T11:24:00;5.40;;;1.52;;
81960;SDS011;71462;50.650;6.888;2023-08-06T11:27:18;4.22;;;1.50;;
81960;SDS011;71462;50.650;6.888;2023-08-06T11:28:50;2.13;;;1.40;;
81960;SDS011;71462;50.650;6.888;2023-08-06T11:31:03;6.75;;;1.83;;
81960;SDS011;71462;50.650;6.888;2023-08-06T11:33:24;3.35;;;1.73;;
81960;SDS011;71462;50.650;6.888;2023-08-06T11:35:30;3.55;;;1.58;;
81960;SDS011;71462;50.650;6.888;2023-08-06T11:37:44;2.95;;;1.42;;
81960;SDS011;71462;50.650;6.888;2023-08-06T11:40:09;5.00;;;1.60;;
81960;SDS011;71462;50.650;6.888;2023-08-06T11:42:32;6.93;;;1.70;;
81960;SDS011;71462;50.650;6.888;2023-08-06T11:44:43;2.85;;;1.67;;
81960;SDS011;71462;50.650;6.888;2023-08-06T11:47:49;4.65;;;1.63;;
81960;SDS011;71462;50.650;6.888;2023-08-06T11:49:53;4.55;;;1.70;;
81960;SDS011;71462;50.650;6.888;2023-08-06T11:51:56;4.40;;;1.77;;
81960;SDS011;71462;50.650;6.888;2023-08-06T11:54:09;4.72;;;1.83;;
81960;SDS011;71462;50.650;6.888;2023-08-06T11:56:36;8.43;;;2.10;;
81960;SDS011;71462;50.650;6.888;2023-08-06T11:58:42;7.00;;;2.33;;
81960;SDS011;71462;50.650;6.888;2023-08-06T12:00:44;6.13;;;2.22;;
81960;SDS011;71462;50.650;6.888;2023-08-06T12:03:18;4.25;;;1.80;;
81960;SDS011;71462;50.650;6.888;2023-08-06T12:05:37;3.42;;;1.50;;
81960;SDS011;71462;50.650;6.888;2023-08-06T12:07:43;6.07;;;1.70;;
81960;SDS011;71462;50.650;6.888;2023-08-06T12:10:13;7.72;;;1.95;;
81960;SDS011;71462;50.650;6.888;2023-08-06T12:16:05;5.80;;;1.90;;
81960;SDS011;71462;50.650;6.888;2023-08-06T12:29:13;5.15;;;1.77;;
81960;SDS011;71462;50.650;6.888;2023-08-06T12:31:22;5.47;;;2.08;;
81960;SDS011;71462;50.650;6.888;2023-08-06T12:33:51;3.17;;;1.35;;
81960;SDS011;71462;50.650;6.888;2023-08-06T12:36:16;7.38;;;1.83;;
81960;SDS011;71462;50.650;6.888;2023-08-06T12:38:36;4.25;;;1.75;;
81960;SDS011;71462;50.650;6.888;2023-08-06T12:41:27;3.15;;;1.20;;
81960;SDS011;71462;50.650;6.888;2023-08-06T12:44:16;2.90;;;1.75;;
81960;SDS011;71462;50.650;6.888;2023-08-06T12:52:35;1.35;;;0.77;;
81960;SDS011;71462;50.650;6.888;2023-08-06T12:54:54;3.38;;;1.13;;
81960;SDS011;71462;50.650;6.888;2023-08-06T12:57:13;2.42;;;0.88;;
81960;SDS011;71462;50.650;6.888;2023-08-06T13:01:52;2.22;;;1.30;;
81960;SDS011;71462;50.650;6.888;2023-08-06T13:04:20;4.50;;;1.65;;
81960;SDS011;71462;50.650;6.888;2023-08-06T13:06:43;9.68;;;3.05;;
81960;SDS011;71462;50.650;6.888;2023-08-06T13:14:49;2.72;;;1.25;;
81960;SDS011;71462;50.650;6.888;2023-08-06T13:24:31;5.05;;;1.90;;
81960;SDS011;71462;50.650;6.888;2023-08-06T13:26:39;5.53;;;2.30;;
81960;SDS011;71462;50.650;6.888;2023-08-06T13:28:44;4.95;;;2.10;;
81960;SDS011;71462;50.650;6.888;2023-08-06T13:33:31;4.10;;;2.05;;
81960;SDS011;71462;50.650;6.888;2023-08-06T13:35:34;5.70;;;2.20;;
81960;SDS011;71462;50.650;6.888;2023-08-06T13:37:36;8.82;;;2.83;;
81960;SDS011;71462;50.650;6.888;2023-08-06T13:39:39;6.22;;;2.00;;
81960;SDS011;71462;50.650;6.888;2023-08-06T13:42:12;5.95;;;2.38;;
81960;SDS011;71462;50.650;6.888;2023-08-06T13:44:24;5.88;;;2.28;;
81960;SDS011;71462;50.650;6.888;2023-08-06T13:46:38;4.28;;;2.10;;
81960;SDS011;71462;50.650;6.888;2023-08-06T13:48:41;5.13;;;1.80;;
81960;SDS011;71462;50.650;6.888;2023-08-06T13:54:18;3.58;;;1.60;;
81960;SDS011;71462;50.650;6.888;2023-08-06T14:03:03;5.53;;;1.60;;
81960;SDS011;71462;50.650;6.888;2023-08-06T14:08:01;6.15;;;1.80;;
81960;SDS011;71462;50.650;6.888;2023-08-06T14:10:53;2.95;;;1.83;;
81960;SDS011;71462;50.650;6.888;2023-08-06T14:25:27;4.30;;;1.80;;
81960;SDS011;71462;50.650;6.888;2023-08-06T14:27:43;3.95;;;1.30;;
81960;SDS011;71462;50.650;6.888;2023-08-06T14:40:32;1.58;;;0.90;;
81960;SDS011;71462;50.650;6.888;2023-08-06T14:42:41;0.57;;;0.57;;
81960;SDS011;71462;50.650;6.888;2023-08-06T14:44:44;1.48;;;1.05;;
81960;SDS011;71462;50.650;6.888;2023-08-06T14:46:47;1.13;;;0.70;;
81960;SDS011;71462;50.650;6.888;2023-08-06T14:49:04;1.55;;;0.80;;
81960;SDS011;71462;50.650;6.888;2023-08-06T14:53:56;1.70;;;1.00;;
81960;SDS011;71462;50.650;6.888;2023-08-06T14:56:00;1.98;;;0.63;;
81960;SDS011;71462;50.650;6.888;2023-08-06T14:58:11;0.98;;;0.80;;
81960;SDS011;71462;50.650;6.888;2023-08-06T15:00:13;3.33;;;1.20;;
81960;SDS011;71462;50.650;6.888;2023-08-06T15:02:43;2.22;;;1.00;;
81960;SDS011;71462;50.650;6.888;2023-08-06T15:05:01;1.95;;;1.10;;
81960;SDS011;71462;50.650;6.888;2023-08-06T15:09:31;2.00;;;1.00;;
81960;SDS011;71462;50.650;6.888;2023-08-06T15:17:35;3.45;;;1.25;;
81960;SDS011;71462;50.650;6.888;2023-08-06T15:22:14;2.42;;;1.10;;
81960;SDS011;71462;50.650;6.888;2023-08-06T15:30:27;5.30;;;1.30;;
81960;SDS011;71462;50.650;6.888;2023-08-06T15:32:30;3.70;;;0.75;;
81960;SDS011;71462;50.650;6.888;2023-08-06T15:34:39;1.98;;;0.93;;
81960;SDS011;71462;50.650;6.888;2023-08-06T15:36:42;2.45;;;1.10;;
81960;SDS011;71462;50.650;6.888;2023-08-06T15:38:45;4.13;;;1.00;;
81960;SDS011;71462;50.650;6.888;2023-08-06T15:41:27;2.72;;;1.05;;
81960;SDS011;71462;50.650;6.888;2023-08-06T15:54:15;4.30;;;1.00;;
81960;SDS011;71462;50.650;6.888;2023-08-06T15:56:35;2.10;;;1.05;;
81960;SDS011;71462;50.650;6.888;2023-08-06T16:24:38;2.25;;;1.02;;
81960;SDS011;71462;50.650;6.888;2023-08-06T16:26:42;8.00;;;1.33;;
81960;SDS011;71462;50.650;6.888;2023-08-06T16:34:09;1.73;;;1.00;;
81960;SDS011;71462;50.650;6.888;2023-08-06T16:36:20;5.47;;;1.80;;
81960;SDS011;71462;50.650;6.888;2023-08-06T16:38:26;7.18;;;2.00;;
81960;SDS011;71462;50.650;6.888;2023-08-06T16:41:04;6.40;;;1.40;;
81960;SDS011;71462;50.650;6.888;2023-08-06T16:43:50;4.45;;;1.40;;
81960;SDS011;71462;50.650;6.888;2023-08-06T16:46:01;3.58;;;1.38;;
81960;SDS011;71462;50.650;6.888;2023-08-06T16:51:06;2.50;;;1.30;;
81960;SDS011;71462;50.650;6.888;2023-08-06T16:53:20;5.43;;;1.60;;
81960;SDS011;71462;50.650;6.888;2023-08-06T16:55:24;4.45;;;1.48;;
81960;SDS011;71462;50.650;6.888;2023-08-06T17:03:19;5.30;;;1.73;;
81960;SDS011;71462;50.650;6.888;2023-08-06T17:10:32;6.30;;;1.35;;
81960;SDS011;71462;50.650;6.888;2023-08-06T17:12:39;4.40;;;1.75;;
81960;SDS011;71462;50.650;6.888;2023-08-06T17:15:21;5.28;;;2.05;;
81960;SDS011;71462;50.650;6.888;2023-08-06T17:17:27;4.97;;;2.15;;
81960;SDS011;71462;50.650;6.888;2023-08-06T17:19:30;9.63;;;2.00;;
81960;SDS011;71462;50.650;6.888;2023-08-06T17:24:58;4.40;;;2.25;;
81960;SDS011;71462;50.650;6.888;2023-08-06T17:27:03;6.88;;;2.47;;
81960;SDS011;71462;50.650;6.888;2023-08-06T17:30:41;8.13;;;2.35;;
81960;SDS011;71462;50.650;6.888;2023-08-06T17:31:44;4.40;;;1.90;;
81960;SDS011;71462;50.650;6.888;2023-08-06T17:34:07;7.03;;;2.00;;
81960;SDS011;71462;50.650;6.888;2023-08-06T17:36:36;3.60;;;1.77;;
81960;SDS011;71462;50.650;6.888;2023-08-06T17:41:10;2.83;;;1.70;;
81960;SDS011;71462;50.650;6.888;2023-08-06T17:43:51;3.83;;;1.80;;
81960;SDS011;71462;50.650;6.888;2023-08-06T17:45:49;8.35;;;1.80;;
81960;SDS011;71462;50.650;6.888;2023-08-06T17:47:55;3.72;;;1.80;;
81960;SDS011;71462;50.650;6.888;2023-08-06T17:50:12;4.05;;;1.63;;
81960;SDS011;71462;50.650;6.888;2023-08-06T17:52:22;7.57;;;2.03;;
81960;SDS011;71462;50.650;6.888;2023-08-06T17:54:28;4.78;;;1.80;;
81960;SDS011;71462;50.650;6.888;2023-08-06T17:56:51;3.95;;;1.50;;
81960;SDS011;71462;50.650;6.888;2023-08-06T17:59:00;4.32;;;1.77;;
81960;SDS011;71462;50.650;6.888;2023-08-06T18:01:51;4.40;;;2.00;;
81960;SDS011;71462;50.650;6.888;2023-08-06T18:03:54;8.10;;;1.77;;
81960;SDS011;71462;50.650;6.888;2023-08-06T18:08:57;2.65;;;1.40;;
81960;SDS011;71462;50.650;6.888;2023-08-06T18:17:41;2.97;;;1.60;;
81960;SDS011;71462;50.650;6.888;2023-08-06T18:20:06;1.98;;;1.15;;
81960;SDS011;71462;50.650;6.888;2023-08-06T18:24:44;3.55;;;1.40;;
81960;SDS011;71462;50.650;6.888;2023-08-06T18:29:25;4.95;;;1.60;;
81960;SDS011;71462;50.650;6.888;2023-08-06T18:45:47;3.92;;;1.30;;
81960;SDS011;71462;50.650;6.888;2023-08-06T18:50:20;3.67;;;1.25;;
81960;SDS011;71462;50.650;6.888;2023-08-06T19:00:18;7.40;;;1.60;;
81960;SDS011;71462;50.650;6.888;2023-08-06T19:02:55;4.53;;;1.60;;
81960;SDS011;71462;50.650;6.888;2023-08-06T19:05:10;4.93;;;1.50;;
81960;SDS011;71462;50.650;6.888;2023-08-06T19:07:17;5.15;;;1.40;;
81960;SDS011;71462;50.650;6.888;2023-08-06T19:09:55;6.53;;;2.80;;
81960;SDS011;71462;50.650;6.888;2023-08-06T19:12:19;4.13;;;1.73;;
81960;SDS011;71462;50.650;6.888;2023-08-06T19:14:35;7.10;;;2.13;;
81960;SDS011;71462;50.650;6.888;2023-08-06T19:16:38;6.72;;;1.92;;
81960;SDS011;71462;50.650;6.888;2023-08-06T19:19:01;8.95;;;2.33;;
81960;SDS011;71462;50.650;6.888;2023-08-06T19:23:53;5.50;;;2.10;;
81960;SDS011;71462;50.650;6.888;2023-08-06T19:26:06;10.63;;;2.22;;
81960;SDS011;71462;50.650;6.888;2023-08-06T19:30:30;9.10;;;2.67;;
81960;SDS011;71462;50.650;6.888;2023-08-06T19:32:35;8.15;;;2.72;;
81960;SDS011;71462;50.650;6.888;2023-08-06T19:34:39;7.43;;;2.72;;
81960;SDS011;71462;50.650;6.888;2023-08-06T19:36:47;13.85;;;2.65;;
81960;SDS011;71462;50.650;6.888;2023-08-06T19:38:51;8.60;;;2.92;;
81960;SDS011;71462;50.650;6.888;2023-08-06T19:43:55;10.95;;;2.88;;
81960;SDS011;71462;50.650;6.888;2023-08-06T19:46:12;9.60;;;2.38;;
81960;SDS011;71462;50.650;6.888;2023-08-06T19:51:10;7.10;;;2.42;;
81960;SDS011;71462;50.650;6.888;2023-08-06T19:53:13;7.75;;;2.17;;
81960;SDS011;71462;50.650;6.888;2023-08-06T19:55:15;10.25;;;2.20;;
81960;SDS011;71462;50.650;6.888;2023-08-06T20:00:09;7.95;;;3.17;;
81960;SDS011;71462;50.650;6.888;2023-08-06T20:02:33;4.30;;;1.90;;
81960;SDS011;71462;50.650;6.888;2023-08-06T20:21:35;6.63;;;1.98;;
81960;SDS011;71462;50.650;6.888;2023-08-06T20:23:48;4.70;;;1.80;;
81960;SDS011;71462;50.650;6.888;2023-08-06T20:29:04;7.88;;;1.90;;
81960;SDS011;71462;50.650;6.888;2023-08-06T20:31:07;6.30;;;1.80;;
81960;SDS011;71462;50.650;6.888;2023-08-06T20:33:12;5.13;;;1.90;;
81960;SDS011;71462;50.650;6.888;2023-08-06T20:35:46;6.32;;;2.88;;
81960;SDS011;71462;50.650;6.888;2023-08-06T20:37:52;6.63;;;2.05;;
81960;SDS011;71462;50.650;6.888;2023-08-06T20:39:58;8.45;;;2.47;;
81960;SDS011;71462;50.650;6.888;2023-08-06T20:41:59;6.38;;;2.80;;
81960;SDS011;71462;50.650;6.888;2023-08-06T20:44:06;10.07;;;2.88;;
81960;SDS011;71462;50.650;6.888;2023-08-06T20:46:24;8.75;;;2.58;;
81960;SDS011;71462;50.650;6.888;2023-08-06T20:49:09;9.52;;;2.40;;
81960;SDS011;71462;50.650;6.888;2023-08-06T20:51:16;13.45;;;2.72;;
81960;SDS011;71462;50.650;6.888;2023-08-06T20:53:57;11.20;;;2.70;;
81960;SDS011;71462;50.650;6.888;2023-08-06T20:58:55;8.18;;;2.80;;
81960;SDS011;71462;50.650;6.888;2023-08-06T21:01:16;9.30;;;2.70;;
81960;SDS011;71462;50.650;6.888;2023-08-06T21:06:17;11.65;;;2.65;;
81960;SDS011;71462;50.650;6.888;2023-08-06T21:08:26;14.88;;;3.45;;